createdAt,value
2023-04-11T00:00:50.567Z,18.60
2023-04-11T00:03:30.246Z,18.00
2023-04-11T00:06:11.244Z,17.10
2023-04-11T00:08:51.092Z,16.00
2023-04-11T00:11:32.277Z,17.20
2023-04-11T00:16:50.161Z,17.50
2023-04-11T00:19:30.154Z,18.00
2023-04-11T00:22:10.472Z,18.00
2023-04-11T00:24:50.864Z,17.20
2023-04-11T00:27:22.044Z,16.90
2023-04-11T00:30:01.718Z,18.90
2023-04-11T00:32:41.199Z,16.80
2023-04-11T00:35:20.634Z,17.30
2023-04-11T00:38:02.513Z,19.30
2023-04-11T00:40:42.343Z,18.90
2023-04-11T00:43:21.967Z,21.60
2023-04-11T00:45:59.910Z,16.80
2023-04-11T00:48:41.590Z,17.00
2023-04-11T00:51:24.037Z,10.90
2023-04-11T00:54:03.421Z,8.40
2023-04-11T00:56:43.184Z,18.40
2023-04-11T00:59:22.465Z,17.20
2023-04-11T01:02:02.222Z,12.60
2023-04-11T01:04:41.576Z,14.90
2023-04-11T01:07:22.056Z,15.80
2023-04-11T01:10:02.432Z,17.30
2023-04-11T01:12:33.748Z,15.80
2023-04-11T01:15:14.942Z,15.50
2023-04-11T01:17:55.785Z,14.10
2023-04-11T01:20:35.099Z,16.00
2023-04-11T01:23:16.725Z,15.90
2023-04-11T01:25:56.157Z,14.60
2023-04-11T01:28:34.720Z,16.40
2023-04-11T01:31:07.378Z,14.80
2023-04-11T01:33:47.870Z,15.60
2023-04-11T01:36:27.388Z,15.10
2023-04-11T01:39:07.757Z,11.80
2023-04-11T01:41:48.230Z,14.00
2023-04-11T01:44:29.111Z,14.60
2023-04-11T01:47:10.531Z,12.00
2023-04-11T01:49:51.019Z,15.30
2023-04-11T01:52:29.959Z,14.90
2023-04-11T01:55:00.196Z,14.50
2023-04-11T01:57:32.338Z,13.70
2023-04-11T02:00:12.005Z,15.70
2023-04-11T02:02:51.984Z,15.10
2023-04-11T02:05:31.656Z,15.40
2023-04-11T02:08:12.541Z,16.60
2023-04-11T02:10:51.806Z,15.60
2023-04-11T02:13:32.153Z,13.70
2023-04-11T02:16:24.695Z,13.80
2023-04-11T02:18:54.970Z,12.80
2023-04-11T02:21:32.494Z,14.20
2023-04-11T02:24:02.637Z,14.70
2023-04-11T02:26:43.319Z,15.90
2023-04-11T02:29:22.999Z,16.60
2023-04-11T02:32:02.300Z,16.80
2023-04-11T02:34:41.840Z,17.70
2023-04-11T02:37:22.124Z,15.70
2023-04-11T02:40:01.562Z,18.10
2023-04-11T02:42:37.531Z,14.00
2023-04-11T02:45:17.699Z,16.50
2023-04-11T02:47:57.301Z,15.50
2023-04-11T02:50:36.629Z,8.10
2023-04-11T02:53:16.813Z,13.60
2023-04-11T02:55:56.143Z,15.50
2023-04-11T02:58:39.512Z,14.20
2023-04-11T03:01:19.216Z,14.30
2023-04-11T03:03:58.505Z,14.60
2023-04-11T03:06:37.969Z,15.10
2023-04-11T03:09:17.496Z,15.50
2023-04-11T03:11:47.916Z,16.00
2023-04-11T03:14:19.371Z,16.60
2023-04-11T03:16:54.511Z,14.00
2023-04-11T03:19:34.092Z,14.20
2023-04-11T03:22:12.075Z,14.70
2023-04-11T03:24:52.185Z,14.10
2023-04-11T03:27:32.062Z,13.30
2023-04-11T03:30:13.238Z,8.50
2023-04-11T03:32:54.918Z,14.50
2023-04-11T03:35:34.315Z,12.30
2023-04-11T03:38:14.164Z,12.60
2023-04-11T03:40:51.600Z,15.10
2023-04-11T03:43:31.820Z,11.50
2023-04-11T03:46:11.640Z,14.70
2023-04-11T03:48:50.428Z,14.10
2023-04-11T03:51:29.146Z,13.80
2023-04-11T03:53:59.886Z,8.90
2023-04-11T03:56:38.973Z,10.40
2023-04-11T03:59:18.198Z,10.70
2023-04-11T04:01:56.767Z,13.80
2023-04-11T04:04:36.906Z,15.10
2023-04-11T04:07:18.463Z,13.10
2023-04-11T04:09:57.069Z,14.00
2023-04-11T04:12:35.881Z,14.10
2023-04-11T04:15:15.083Z,10.00
2023-04-11T04:17:54.319Z,9.80
2023-04-11T04:20:33.158Z,13.30
2023-04-11T04:23:14.352Z,14.60
2023-04-11T04:28:23.996Z,12.60
2023-04-11T04:30:58.770Z,12.60
2023-04-11T04:33:36.799Z,12.80
2023-04-11T04:36:18.331Z,12.90
2023-04-11T04:39:02.411Z,12.80
2023-04-11T04:41:35.006Z,12.40
2023-04-11T04:44:16.318Z,6.90
2023-04-11T04:46:57.023Z,12.50
2023-04-11T04:49:35.629Z,13.80
2023-04-11T04:52:15.868Z,13.80
2023-04-11T04:54:58.266Z,11.80
2023-04-11T04:57:37.001Z,15.10
2023-04-11T05:00:17.331Z,12.30
2023-04-11T05:02:57.174Z,12.90
2023-04-11T05:05:36.838Z,8.30
2023-04-11T05:08:17.521Z,11.30
2023-04-11T05:10:47.907Z,13.50
2023-04-11T05:13:27.466Z,11.70
2023-04-11T05:16:07.191Z,13.90
2023-04-11T05:18:46.744Z,13.10
2023-04-11T05:21:27.063Z,10.90
2023-04-11T05:24:06.197Z,7.00
2023-04-11T05:26:44.664Z,5.90
2023-04-11T05:29:15.977Z,10.10
2023-04-11T05:31:55.548Z,9.80
2023-04-11T05:34:52.342Z,11.10
2023-04-11T05:37:32.684Z,10.70
2023-04-11T05:40:13.377Z,11.10
2023-04-11T05:42:51.809Z,11.10
2023-04-11T05:45:30.559Z,9.00
2023-04-11T05:48:10.697Z,11.10
2023-04-11T05:50:49.379Z,11.50
2023-04-11T05:53:28.007Z,10.60
2023-04-11T05:55:59.288Z,11.90
2023-04-11T05:58:38.525Z,12.40
2023-04-11T06:01:18.842Z,7.80
2023-04-11T06:03:58.037Z,13.00
2023-04-11T06:06:37.330Z,11.60
2023-04-11T06:09:15.842Z,9.30
2023-04-11T06:11:53.940Z,11.10
2023-04-11T06:14:24.193Z,10.80
2023-04-11T06:17:00.323Z,6.80
2023-04-11T06:19:39.501Z,11.00
2023-04-11T06:22:18.092Z,10.50
2023-04-11T06:24:57.953Z,10.40
2023-04-11T06:27:28.441Z,9.30
2023-04-11T06:30:07.840Z,10.10
2023-04-11T06:32:38.556Z,10.50
2023-04-11T06:35:20.865Z,11.10
2023-04-11T06:37:58.968Z,11.80
2023-04-11T06:40:30.414Z,6.40
2023-04-11T06:43:02.389Z,11.10
2023-04-11T06:45:40.613Z,10.60
2023-04-11T06:48:18.734Z,10.70
2023-04-11T06:50:56.693Z,10.20
2023-04-11T06:53:35.688Z,9.80
2023-04-11T06:56:14.869Z,10.00
2023-04-11T06:58:53.994Z,7.50
2023-04-11T07:01:41.152Z,7.20
2023-04-11T07:04:20.257Z,8.90
2023-04-11T07:06:59.658Z,6.20
2023-04-11T07:09:38.132Z,9.60
2023-04-11T07:12:16.895Z,7.70
2023-04-11T07:14:55.238Z,6.80
2023-04-11T07:17:26.557Z,10.10
2023-04-11T07:20:09.772Z,9.80
2023-04-11T07:22:52.633Z,7.20
2023-04-11T07:25:33.980Z,9.10
2023-04-11T07:28:13.244Z,7.80
2023-04-11T07:30:52.885Z,7.20
2023-04-11T07:33:23.484Z,8.40
2023-04-11T07:36:03.931Z,5.80
2023-04-11T07:38:34.939Z,6.10
2023-04-11T07:41:06.710Z,7.30
2023-04-11T07:43:45.136Z,5.20
2023-04-11T07:46:22.425Z,6.80
2023-04-11T07:49:01.341Z,5.30
2023-04-11T07:51:40.193Z,6.60
2023-04-11T07:54:19.988Z,6.70
2023-04-11T07:56:59.558Z,6.10
2023-04-11T07:59:38.283Z,4.20
2023-04-11T08:02:17.681Z,4.10
2023-04-11T08:04:48.892Z,5.40
2023-04-11T08:07:28.967Z,4.40
2023-04-11T08:10:07.830Z,4.40
2023-04-11T08:12:39.098Z,5.60
2023-04-11T08:15:19.546Z,4.90
2023-04-11T08:18:00.037Z,5.20
2023-04-11T08:20:30.557Z,3.90
2023-04-11T08:23:10.184Z,4.00
2023-04-11T08:25:44.269Z,4.60
2023-04-11T08:28:23.623Z,3.50
2023-04-11T08:31:05.454Z,4.20
2023-04-11T08:33:44.742Z,4.20
2023-04-11T08:36:24.344Z,4.40
2023-04-11T08:39:02.876Z,3.70
2023-04-11T08:41:39.825Z,3.30
2023-04-11T08:44:19.731Z,4.30
2023-04-11T08:46:58.632Z,3.70
2023-04-11T08:49:37.448Z,4.60
2023-04-11T08:52:15.896Z,4.10
2023-04-11T08:54:59.322Z,4.20
2023-04-11T08:57:38.568Z,3.50
2023-04-11T09:00:19.474Z,4.40
2023-04-11T09:03:11.243Z,4.10
2023-04-11T09:05:47.798Z,4.00
2023-04-11T09:08:40.460Z,3.90
2023-04-11T09:11:12.281Z,3.70
2023-04-11T09:13:46.347Z,3.90
2023-04-11T09:16:25.888Z,3.90
2023-04-11T09:19:04.128Z,3.70
2023-04-11T09:21:50.605Z,3.60
2023-04-11T09:24:35.181Z,3.90
2023-04-11T09:27:22.486Z,4.10
2023-04-11T09:29:55.816Z,3.40
2023-04-11T09:32:33.364Z,3.20
2023-04-11T09:35:26.635Z,3.40
2023-04-11T09:38:10.038Z,3.20
2023-04-11T09:40:53.317Z,3.20
2023-04-11T09:43:53.549Z,3.10
2023-04-11T09:46:26.817Z,3.10
2023-04-11T09:49:07.115Z,2.60
2023-04-11T09:51:47.154Z,2.60
2023-04-11T09:54:27.745Z,2.60
2023-04-11T09:57:07.021Z,2.40
2023-04-11T09:59:47.247Z,2.40
2023-04-11T10:05:06.140Z,2.70
2023-04-11T10:07:52.979Z,3.20
2023-04-11T10:10:28.365Z,3.40
2023-04-11T10:13:26.293Z,3.60
2023-04-11T10:16:24.650Z,3.70
2023-04-11T10:19:02.264Z,3.30
2023-04-11T10:21:43.576Z,3.90
2023-04-11T10:24:24.333Z,3.90
2023-04-11T10:27:04.543Z,4.60
2023-04-11T10:29:51.572Z,4.70
2023-04-11T10:32:29.017Z,4.00
2023-04-11T10:35:25.434Z,3.00
2023-04-11T10:38:04.516Z,4.40
2023-04-11T10:40:37.637Z,4.60
2023-04-11T10:43:29.808Z,4.40
2023-04-11T10:46:29.342Z,4.80
2023-04-11T10:49:08.594Z,3.80
2023-04-11T10:51:48.628Z,4.30
2023-04-11T10:54:29.140Z,4.80
2023-04-11T10:57:08.385Z,3.80
2023-04-11T10:59:39.035Z,4.00
2023-04-11T11:02:22.327Z,4.00
2023-04-11T11:05:02.163Z,3.40
2023-04-11T11:07:43.072Z,3.70
2023-04-11T11:10:15.620Z,3.80
2023-04-11T11:13:01.932Z,3.90
2023-04-11T11:15:41.661Z,3.60
2023-04-11T11:18:20.837Z,3.40
2023-04-11T11:21:02.175Z,3.50
2023-04-11T11:23:40.679Z,4.00
2023-04-11T11:26:20.435Z,4.90
2023-04-11T11:29:00.525Z,4.20
2023-04-11T11:31:50.893Z,4.00
2023-04-11T11:34:33.601Z,4.40
2023-04-11T11:37:10.255Z,4.50
2023-04-11T11:39:50.550Z,5.00
2023-04-11T11:42:29.847Z,4.80
2023-04-11T11:45:17.904Z,4.10
2023-04-11T11:47:51.907Z,3.30
2023-04-11T11:53:17.055Z,3.20
2023-04-11T11:55:53.380Z,4.60
2023-04-11T11:58:46.977Z,5.20
2023-04-11T12:01:19.762Z,4.10
2023-04-11T12:03:54.304Z,4.70
2023-04-11T12:06:34.444Z,4.30
2023-04-11T12:09:14.076Z,4.80
2023-04-11T12:11:56.493Z,5.30
2023-04-11T12:14:31.592Z,5.50
2023-04-11T12:17:11.754Z,5.30
2023-04-11T12:19:50.234Z,2.80
2023-04-11T12:22:28.390Z,4.30
2023-04-11T12:25:13.751Z,4.40
2023-04-11T12:27:51.717Z,4.70
2023-04-11T12:30:30.908Z,5.40
2023-04-11T12:33:10.588Z,5.30
2023-04-11T12:35:49.355Z,4.90
2023-04-11T12:38:28.057Z,6.00
2023-04-11T12:41:30.336Z,4.40
2023-04-11T12:44:02.759Z,4.80
2023-04-11T12:46:34.458Z,3.60
2023-04-11T12:49:12.214Z,5.40
2023-04-11T12:51:42.749Z,6.10
2023-04-11T12:54:22.309Z,4.00
2023-04-11T12:57:00.728Z,5.00
2023-04-11T12:59:39.582Z,5.20
2023-04-11T13:02:19.075Z,5.70
2023-04-11T13:05:00.557Z,3.60
2023-04-11T13:07:41.319Z,5.50
2023-04-11T13:10:20.198Z,5.30
2023-04-11T13:13:00.620Z,4.10
2023-04-11T13:15:47.096Z,5.30
2023-04-11T13:18:26.167Z,6.10
2023-04-11T13:21:06.156Z,5.40
2023-04-11T13:23:44.851Z,6.20
2023-04-11T13:26:24.058Z,5.70
2023-04-11T13:28:54.450Z,5.00
2023-04-11T13:31:34.913Z,4.70
2023-04-11T13:34:14.189Z,4.30
2023-04-11T13:36:53.415Z,6.90
2023-04-11T13:39:32.970Z,6.40
2023-04-11T13:42:12.638Z,6.80
2023-04-11T13:44:43.283Z,7.50
2023-04-11T13:47:15.038Z,6.60
2023-04-11T13:49:47.469Z,3.20
2023-04-11T13:52:27.629Z,5.50
2023-04-11T13:55:07.511Z,6.80
2023-04-11T13:57:46.506Z,5.90
2023-04-11T14:00:25.595Z,6.40
2023-04-11T14:03:04.523Z,5.80
2023-04-11T14:05:43.706Z,5.90
2023-04-11T14:08:22.693Z,5.20
2023-04-11T14:11:01.733Z,6.30
2023-04-11T14:13:40.973Z,6.00
2023-04-11T14:16:20.862Z,5.10
2023-04-11T14:19:00.364Z,5.90
2023-04-11T14:21:38.705Z,6.20
2023-04-11T14:24:20.120Z,6.50
2023-04-11T14:26:59.749Z,3.20
2023-04-11T14:29:37.909Z,5.60
2023-04-11T14:32:16.513Z,5.90
2023-04-11T14:34:54.305Z,5.80
2023-04-11T14:37:33.535Z,6.10
2023-04-11T14:40:12.446Z,5.30
2023-04-11T14:42:51.575Z,6.10
2023-04-11T14:45:30.427Z,3.50
2023-04-11T14:48:00.865Z,5.10
2023-04-11T14:50:35.778Z,4.70
2023-04-11T14:53:13.989Z,5.50
2023-04-11T14:55:52.465Z,5.10
2023-04-11T14:58:30.909Z,3.70
2023-04-11T15:01:02.372Z,5.00
2023-04-11T15:03:41.275Z,3.90
2023-04-11T15:06:19.659Z,3.60
2023-04-11T15:08:58.776Z,4.50
2023-04-11T15:11:36.600Z,4.50
2023-04-11T15:14:14.639Z,4.90
2023-04-11T15:16:52.811Z,2.60
2023-04-11T15:19:31.237Z,4.90
2023-04-11T15:22:11.553Z,4.70
2023-04-11T15:24:49.786Z,5.00
2023-04-11T15:27:20.169Z,5.00
2023-04-11T15:30:00.341Z,4.30
2023-04-11T15:32:36.503Z,5.00
2023-04-11T15:35:15.150Z,4.90
2023-04-11T15:37:52.772Z,13.40
2023-04-11T15:40:30.944Z,5.20
2023-04-11T15:43:11.096Z,4.10
2023-04-11T15:45:46.652Z,4.40
2023-04-11T15:48:23.967Z,4.30
2023-04-11T15:51:01.479Z,4.80
2023-04-11T15:53:38.806Z,3.80
2023-04-11T15:56:17.666Z,3.70
2023-04-11T15:58:56.007Z,4.50
2023-04-11T16:01:33.190Z,4.30
2023-04-11T16:04:11.645Z,4.30
2023-04-11T16:06:42.405Z,3.70
2023-04-11T16:09:19.188Z,4.40
2023-04-11T16:11:58.030Z,5.40
2023-04-11T16:14:38.449Z,4.60
2023-04-11T16:17:18.307Z,5.00
2023-04-11T16:19:57.830Z,4.90
2023-04-11T16:22:36.120Z,2.70
2023-04-11T16:25:16.579Z,5.50
2023-04-11T16:27:55.077Z,5.10
2023-04-11T16:30:28.471Z,5.20
2023-04-11T16:33:10.301Z,5.50
2023-04-11T16:35:49.329Z,5.80
2023-04-11T16:38:27.480Z,2.70
2023-04-11T16:41:02.721Z,3.60
2023-04-11T16:43:43.795Z,4.50
2023-04-11T16:46:23.684Z,4.60
2023-04-11T16:48:55.534Z,5.50
2023-04-11T16:51:36.966Z,6.00
2023-04-11T16:54:15.074Z,5.40
2023-04-11T16:56:53.938Z,5.40
2023-04-11T16:59:36.318Z,4.40
2023-04-11T17:02:16.738Z,5.70
2023-04-11T17:04:55.828Z,5.10
2023-04-11T17:07:35.270Z,5.30
2023-04-11T17:10:13.912Z,5.40
2023-04-11T17:12:44.892Z,5.70
2023-04-11T17:15:22.058Z,5.40
2023-04-11T17:18:00.349Z,6.00
2023-04-11T17:20:38.906Z,4.10
2023-04-11T17:23:16.646Z,6.60
2023-04-11T17:26:00.071Z,5.60
2023-04-11T17:28:38.906Z,6.30
2023-04-11T17:31:21.092Z,5.70
2023-04-11T17:34:00.294Z,7.00
2023-04-11T17:36:43.245Z,7.00
2023-04-11T17:39:23.005Z,6.90
2023-04-11T17:42:01.268Z,7.20
2023-04-11T17:44:41.418Z,7.00
2023-04-11T17:47:20.883Z,5.90
2023-04-11T17:50:00.156Z,7.00
2023-04-11T17:52:41.104Z,7.00
2023-04-11T17:55:21.525Z,7.00
2023-04-11T17:58:01.617Z,6.60
2023-04-11T18:00:55.001Z,7.60
2023-04-11T18:03:40.502Z,7.20
2023-04-11T18:06:20.147Z,7.30
2023-04-11T18:09:00.001Z,7.20
2023-04-11T18:11:42.518Z,8.00
2023-04-11T18:14:22.848Z,6.70
2023-04-11T18:17:02.520Z,6.90
2023-04-11T18:19:42.222Z,8.50
2023-04-11T18:22:22.039Z,7.30
2023-04-11T18:25:02.537Z,6.50
2023-04-11T18:27:42.664Z,7.70
2023-04-11T18:30:21.852Z,7.50
2023-04-11T18:33:01.074Z,7.30
2023-04-11T18:35:40.148Z,8.10
2023-04-11T18:38:19.380Z,8.00
2023-04-11T18:40:54.514Z,8.20
2023-04-11T18:43:26.956Z,7.40
2023-04-11T18:46:03.715Z,8.30
2023-04-11T18:48:42.418Z,7.50
2023-04-11T18:51:22.378Z,7.70
2023-04-11T18:54:00.964Z,8.30
2023-04-11T18:56:40.527Z,8.50
2023-04-11T18:59:24.927Z,9.10
2023-04-11T19:02:03.436Z,9.10
2023-04-11T19:04:44.154Z,8.80
2023-04-11T19:07:22.690Z,8.90
2023-04-11T19:10:00.956Z,8.70
2023-04-11T19:12:39.492Z,7.30
2023-04-11T19:15:18.445Z,8.40
2023-04-11T19:17:59.107Z,6.90
2023-04-11T19:20:38.822Z,8.70
2023-04-11T19:23:16.030Z,8.00
2023-04-11T19:25:55.094Z,8.70
2023-04-11T19:28:32.590Z,7.70
2023-04-11T19:31:10.951Z,9.10
2023-04-11T19:33:49.034Z,9.80
2023-04-11T19:36:26.985Z,8.50
2023-04-11T19:39:05.196Z,7.10
2023-04-11T19:41:47.895Z,7.60
2023-04-11T19:44:18.594Z,9.20
2023-04-11T19:46:51.934Z,8.40
2023-04-11T19:49:25.238Z,8.00
2023-04-11T19:52:03.966Z,5.50
2023-04-11T19:54:41.849Z,5.20
2023-04-11T19:57:19.830Z,7.70
2023-04-11T19:59:58.901Z,8.70
2023-04-11T20:02:37.964Z,7.50
2023-04-11T20:05:20.195Z,8.90
2023-04-11T20:07:58.598Z,9.50
2023-04-11T20:10:37.125Z,7.70
2023-04-11T20:13:14.953Z,7.80
2023-04-11T20:15:52.917Z,10.20
2023-04-11T20:18:30.861Z,10.40
2023-04-11T20:21:08.356Z,9.70
2023-04-11T20:23:45.756Z,10.60
2023-04-11T20:26:22.760Z,9.70
2023-04-11T20:29:00.948Z,11.30
2023-04-11T20:31:31.752Z,8.80
2023-04-11T20:34:09.274Z,8.70
2023-04-11T20:36:48.765Z,10.60
2023-04-11T20:39:26.283Z,9.90
2023-04-11T20:42:04.546Z,10.20
2023-04-11T20:44:37.211Z,11.20
2023-04-11T20:47:17.844Z,10.60
2023-04-11T20:49:56.484Z,12.10
2023-04-11T20:52:30.235Z,11.60
2023-04-11T20:55:09.053Z,10.20
2023-04-11T20:57:46.801Z,11.00
2023-04-11T21:00:20.294Z,11.90
2023-04-11T21:02:52.011Z,8.90
2023-04-11T21:05:27.393Z,12.90
2023-04-11T21:08:07.178Z,11.20
2023-04-11T21:10:45.574Z,12.80
2023-04-11T21:13:23.952Z,12.70
2023-04-11T21:16:01.761Z,13.00
2023-04-11T21:18:40.046Z,11.40
2023-04-11T21:21:19.285Z,11.50
2023-04-11T21:23:49.616Z,13.50
2023-04-11T21:26:29.000Z,13.90
2023-04-11T21:29:02.491Z,13.70
2023-04-11T21:31:33.325Z,40.10
2023-04-11T21:34:08.374Z,14.00
2023-04-11T21:36:46.745Z,13.20
2023-04-11T21:39:22.352Z,12.60
2023-04-11T21:42:01.588Z,12.00
2023-04-11T21:44:39.524Z,12.90
2023-04-11T21:47:20.076Z,12.00
2023-04-11T21:49:50.622Z,12.90
2023-04-11T21:52:31.378Z,11.90
2023-04-11T21:55:12.664Z,12.40
2023-04-11T21:57:51.332Z,11.80
2023-04-11T22:00:30.089Z,11.10
2023-04-11T22:03:12.339Z,11.10
2023-04-11T22:05:50.509Z,12.40
2023-04-11T22:08:29.738Z,10.60
2023-04-11T22:11:19.373Z,13.80
2023-04-11T22:13:58.786Z,11.20
2023-04-11T22:16:37.685Z,12.70
2023-04-11T22:19:21.063Z,12.80
2023-04-11T22:22:03.668Z,11.60
2023-04-11T22:24:41.947Z,12.90
2023-04-11T22:27:20.452Z,13.20
2023-04-11T22:30:02.653Z,14.00
2023-04-11T22:32:41.461Z,14.50
2023-04-11T22:35:20.340Z,15.60
2023-04-11T22:38:01.773Z,15.60
2023-04-11T22:40:41.532Z,16.30
2023-04-11T22:43:20.054Z,14.70
2023-04-11T22:46:00.736Z,13.00
2023-04-11T22:48:42.382Z,13.60
2023-04-11T22:51:22.315Z,14.30
2023-04-11T22:54:01.293Z,16.70
2023-04-11T22:56:39.401Z,11.90
2023-04-11T22:59:17.621Z,11.40
2023-04-11T23:01:55.897Z,12.70
2023-04-11T23:04:36.846Z,11.80
2023-04-11T23:07:17.231Z,12.30
2023-04-11T23:09:54.854Z,11.70
2023-04-11T23:12:33.312Z,12.40
2023-04-11T23:15:04.858Z,11.60
2023-04-11T23:17:44.077Z,11.40
2023-04-11T23:20:16.703Z,11.90
2023-04-11T23:22:51.196Z,12.50
2023-04-11T23:25:29.485Z,9.00
2023-04-11T23:28:08.920Z,10.80
2023-04-11T23:30:46.988Z,10.50
2023-04-11T23:33:25.988Z,11.40
2023-04-11T23:36:04.032Z,11.40
2023-04-11T23:38:42.242Z,11.20
2023-04-11T23:41:20.717Z,11.30
2023-04-11T23:44:00.010Z,10.70
2023-04-11T23:46:39.065Z,11.90
2023-04-11T23:49:16.818Z,12.30
2023-04-11T23:51:54.930Z,12.30
2023-04-11T23:54:33.119Z,12.40
2023-04-11T23:57:12.737Z,10.70
2023-04-11T23:59:50.947Z,7.90
